Time;durP1;ratioP1;P1;durP2;ratioP2;P2;SDS_P1;SDS_P2;PMS_P1;PMS_P2;Temp;Humidity;BMP_temperature;BMP_pressure;BME280_temperature;BME280_humidity;BME280_pressure;Samples;Min_cycle;Max_cycle;Signal;HPM_P1;HPM_P2
2022/09/08 00:02:24;;;;;;;12.75;3.47;;;20.20;99.90;;;;;;5019913;28;20021;-83
2022/09/08 00:04:50;;;;;;;4.70;3.75;;;20.30;99.90;;;;;;5021411;28;20031;-85
2022/09/08 00:07:16;;;;;;;10.48;4.05;;;20.30;99.90;;;;;;5020141;28;20791;-86
2022/09/08 00:09:42;;;;;;;8.38;5.00;;;20.30;99.90;;;;;;5020779;28;20104;-86
2022/09/08 00:12:09;;;;;;;9.23;5.32;;;20.40;99.90;;;;;;5019870;28;20497;-78
2022/09/08 00:14:36;;;;;;;8.40;5.60;;;20.40;99.90;;;;;;5031208;28;20032;-84
2022/09/08 00:17:02;;;;;;;9.40;6.25;;;20.50;99.90;;;;;;5025841;28;20049;-82
2022/09/08 00:19:30;;;;;;;8.63;6.57;;;20.50;99.90;;;;;;5026624;28;20021;-85
2022/09/08 00:21:56;;;;;;;9.80;7.43;;;20.50;99.90;;;;;;5025756;28;20025;-85
2022/09/08 00:24:22;;;;;;;15.75;8.55;;;20.50;99.90;;;;;;5029255;28;20576;-83
2022/09/08 00:26:48;;;;;;;13.13;8.32;;;20.60;99.90;;;;;;5026451;28;20064;-84
2022/09/08 00:29:16;;;;;;;19.40;10.25;;;20.50;99.90;;;;;;5028448;28;20034;-85
2022/09/08 00:31:42;;;;;;;18.45;10.85;;;20.60;99.90;;;;;;5026322;28;20466;-85
2022/09/08 00:34:08;;;;;;;14.18;10.32;;;20.60;99.90;;;;;;5019556;28;20029;-82
2022/09/08 00:36:34;;;;;;;15.27;11.07;;;20.60;99.90;;;;;;5028182;28;20375;-82
2022/09/08 00:39:00;;;;;;;16.45;13.10;;;20.60;99.90;;;;;;5029021;28;20036;-83
2022/09/08 00:41:27;;;;;;;20.23;13.75;;;20.60;99.90;;;;;;5025537;28;20693;-82
2022/09/08 00:44:01;;;;;;;21.92;14.65;;;20.50;99.90;;;;;;5029526;28;20025;-83
2022/09/08 00:46:39;;;;;;;24.25;14.25;;;20.50;99.90;;;;;;5028376;28;20025;-83
2022/09/08 00:49:22;;;;;;;20.33;15.27;;;20.50;99.90;;;;;;5024537;28;20450;-81
2022/09/08 00:51:54;;;;;;;24.55;15.52;;;20.50;99.90;;;;;;5028662;28;20067;-84
2022/09/08 00:54:20;;;;;;;24.73;16.48;;;20.50;99.90;;;;;;5027783;28;20029;-83
2022/09/08 00:56:47;;;;;;;24.83;19.00;;;20.50;99.90;;;;;;5023625;28;20339;-83
2022/09/08 00:59:17;;;;;;;26.90;19.65;;;20.50;99.90;;;;;;5023338;28;20083;-83
2022/09/08 01:01:42;;;;;;;27.90;19.67;;;20.50;99.90;;;;;;5019810;28;20099;-82
2022/09/08 01:04:09;;;;;;;24.80;20.95;;;20.50;99.90;;;;;;5016223;28;20030;-82
2022/09/08 01:15:11;;;;;;;30.88;20.05;;;20.40;99.90;;;;;;5019564;28;20561;-82
2022/09/08 01:17:38;;;;;;;27.33;20.80;;;20.40;99.90;;;;;;5022082;28;20028;-84
2022/09/08 01:20:08;;;;;;;29.88;21.10;;;20.40;99.90;;;;;;5018337;28;20112;-82
2022/09/08 01:22:48;;;;;;;32.42;21.45;;;20.40;99.90;;;;;;5018970;28;20604;-83
2022/09/08 01:25:48;;;;;;;24.02;20.33;;;20.40;99.90;;;;;;5016118;28;20032;-83
2022/09/08 01:28:27;;;;;;;29.77;21.92;;;20.50;99.90;;;;;;5015361;28;20033;-82
2022/09/08 01:30:56;;;;;;;29.85;20.55;;;20.50;99.90;;;;;;5015949;28;20079;-83
2022/09/08 01:33:22;;;;;;;27.70;20.52;;;20.50;99.90;;;;;;5018724;28;20041;-84
2022/09/08 01:35:48;;;;;;;27.70;20.88;;;20.50;99.90;;;;;;5018588;28;20022;-82
2022/09/08 01:38:14;;;;;;;29.75;22.27;;;20.40;99.90;;;;;;5015899;28;20034;-84
2022/09/08 01:40:42;;;;;;;35.80;22.65;;;20.50;99.90;;;;;;5016244;28;20017;-82
2022/09/08 01:43:08;;;;;;;25.98;21.20;;;20.50;99.90;;;;;;5017675;28;20034;-82
2022/09/08 01:45:35;;;;;;;29.02;20.92;;;20.50;99.90;;;;;;5016469;28;20037;-83
2022/09/08 01:48:01;;;;;;;27.15;21.08;;;20.50;99.90;;;;;;5020244;28;20029;-83
2022/09/08 01:50:27;;;;;;;30.88;22.67;;;20.50;99.90;;;;;;5017096;28;20034;-85
2022/09/08 01:52:55;;;;;;;33.55;22.08;;;20.50;99.90;;;;;;5017755;28;20041;-77
2022/09/08 01:55:23;;;;;;;26.38;20.88;;;20.40;99.90;;;;;;5017309;28;20048;-85
2022/09/08 01:57:51;;;;;;;28.50;22.55;;;20.40;99.90;;;;;;5019435;28;20045;-85
2022/09/08 02:00:20;;;;;;;32.47;22.90;;;20.40;99.90;;;;;;5017852;28;20056;-84
2022/09/08 02:02:46;;;;;;;30.50;21.30;;;20.40;99.90;;;;;;5018286;28;20017;-82
2022/09/08 02:05:14;;;;;;;28.27;21.67;;;20.40;99.90;;;;;;5019355;28;20021;-80
2022/09/08 02:07:39;;;;;;;26.92;21.58;;;20.40;99.90;;;;;;5019655;28;20036;-83
2022/09/08 02:10:07;;;;;;;28.95;22.10;;;20.40;99.90;;;;;;5016509;28;20307;-84
2022/09/08 02:12:35;;;;;;;31.05;21.42;;;20.20;99.90;;;;;;5019339;28;20048;-81
2022/09/08 02:15:03;;;;;;;31.35;22.23;;;20.20;99.90;;;;;;5021712;28;20026;-82
2022/09/08 02:17:29;;;;;;;32.72;21.17;;;20.10;99.90;;;;;;5020053;28;20022;-80
2022/09/08 02:19:55;;;;;;;28.85;20.52;;;20.00;99.90;;;;;;5021438;28;20029;-83
2022/09/08 02:22:21;;;;;;;27.60;20.55;;;20.10;99.90;;;;;;5021895;28;20032;-75
2022/09/08 02:24:49;;;;;;;26.35;19.67;;;20.10;99.90;;;;;;5023244;28;20029;-80
2022/09/08 02:27:14;;;;;;;29.08;20.85;;;20.10;99.90;;;;;;5019231;28;20029;-80
2022/09/08 02:29:42;;;;;;;28.50;20.23;;;20.10;99.90;;;;;;5019002;28;20056;-82
2022/09/08 02:32:08;;;;;;;26.15;19.25;;;20.20;99.90;;;;;;5023418;28;20052;-82
2022/09/08 02:34:37;;;;;;;29.15;20.58;;;20.20;99.90;;;;;;5018940;28;20041;-79
2022/09/08 02:37:07;;;;;;;30.80;20.95;;;20.20;99.90;;;;;;5020321;28;20109;-79
2022/09/08 02:39:32;;;;;;;26.10;19.88;;;20.20;99.90;;;;;;5018391;28;20034;-79
2022/09/08 02:41:58;;;;;;;28.77;21.33;;;20.20;99.90;;;;;;5020011;28;20033;-79
2022/09/08 02:44:24;;;;;;;27.85;19.95;;;20.20;99.90;;;;;;5021355;28;20044;-82
2022/09/08 02:46:51;;;;;;;27.95;20.98;;;20.20;99.90;;;;;;5022229;28;20033;-79
2022/09/08 02:49:17;;;;;;;26.95;20.83;;;20.20;99.90;;;;;;5024049;28;20022;-79
2022/09/08 02:51:43;;;;;;;30.95;21.70;;;20.20;99.90;;;;;;5019061;28;20036;-80
2022/09/08 02:54:13;;;;;;;27.38;21.15;;;20.20;99.90;;;;;;5020927;28;20030;-82
2022/09/08 02:56:39;;;;;;;28.88;20.38;;;20.20;99.90;;;;;;5026273;28;20311;-78
2022/09/08 02:59:04;;;;;;;30.05;21.92;;;20.20;99.90;;;;;;5017800;28;20026;-82
2022/09/08 03:01:30;;;;;;;28.08;21.15;;;20.20;99.90;;;;;;5022686;28;20033;-83
2022/09/08 03:03:58;;;;;;;29.58;21.52;;;20.10;99.90;;;;;;5023194;28;20080;-82
2022/09/08 03:06:24;;;;;;;26.35;20.58;;;20.20;99.90;;;;;;5021516;28;20026;-83
2022/09/08 03:08:49;;;;;;;29.13;21.48;;;20.10;99.90;;;;;;5021580;28;20095;-79
2022/09/08 03:11:16;;;;;;;30.40;21.98;;;20.10;99.90;;;;;;5022291;28;20026;-81
2022/09/08 03:13:44;;;;;;;35.90;22.67;;;20.00;99.90;;;;;;5021247;28;20095;-81
2022/09/08 03:16:13;;;;;;;30.65;22.17;;;19.90;99.90;;;;;;5018625;28;20026;-82
2022/09/08 03:18:39;;;;;;;31.77;22.27;;;19.90;99.90;;;;;;5024657;28;20021;-81
2022/09/08 03:21:08;;;;;;;33.25;21.83;;;19.80;99.90;;;;;;5021085;28;20037;-79
2022/09/08 03:23:34;;;;;;;35.60;22.90;;;19.70;99.90;;;;;;5021568;28;20047;-77
2022/09/08 03:26:12;;;;;;;32.90;23.27;;;19.80;99.90;;;;;;5023645;28;20022;-82
2022/09/08 03:28:38;;;;;;;32.63;22.25;;;19.70;99.90;;;;;;5023041;28;20145;-83
2022/09/08 03:31:13;;;;;;;34.55;23.38;;;19.80;99.90;;;;;;5002940;28;20513;-81
2022/09/08 03:33:41;;;;;;;29.42;22.02;;;19.70;99.90;;;;;;5020804;28;20076;-77
2022/09/08 03:36:13;;;;;;;31.17;23.05;;;19.70;99.90;;;;;;5020530;28;20032;-82
2022/09/08 03:38:39;;;;;;;31.30;22.73;;;19.70;99.90;;;;;;5021904;28;20107;-82
2022/09/08 03:41:11;;;;;;;31.30;23.58;;;19.60;99.90;;;;;;5020127;28;20121;-81
2022/09/08 03:43:37;;;;;;;35.97;23.35;;;19.60;99.90;;;;;;5019507;28;20064;-82
2022/09/08 03:46:07;;;;;;;37.83;23.40;;;19.60;99.90;;;;;;5019545;28;20057;-79
2022/09/08 03:48:35;;;;;;;35.38;23.95;;;19.60;99.90;;;;;;5017273;28;20026;-80
2022/09/08 03:51:12;;;;;;;33.15;24.35;;;19.50;99.90;;;;;;5019831;28;20026;-82
2022/09/08 03:53:38;;;;;;;31.00;22.90;;;19.50;99.90;;;;;;5019203;28;20034;-80
2022/09/08 03:56:08;;;;;;;31.95;21.92;;;19.40;99.90;;;;;;5019349;28;20088;-80
2022/09/08 03:58:37;;;;;;;29.05;22.15;;;19.40;99.90;;;;;;5018593;28;20458;-82
2022/09/08 04:01:11;;;;;;;29.55;20.65;;;19.50;99.90;;;;;;5019080;28;20052;-82
2022/09/08 04:03:37;;;;;;;33.35;20.48;;;19.50;99.90;;;;;;5020333;28;20041;-82
2022/09/08 04:06:03;;;;;;;28.30;19.35;;;19.50;99.90;;;;;;5024081;28;20048;-82
2022/09/08 04:08:29;;;;;;;36.05;19.92;;;19.50;99.90;;;;;;5021539;28;20112;-79
2022/09/08 04:10:55;;;;;;;27.83;19.20;;;19.50;99.90;;;;;;5022542;28;20025;-82
2022/09/08 04:13:21;;;;;;;24.02;17.60;;;19.60;99.90;;;;;;5018793;28;20111;-83
2022/09/08 04:15:49;;;;;;;24.33;17.50;;;19.60;99.90;;;;;;5044904;28;20026;-85
2022/09/08 04:18:15;;;;;;;26.55;18.77;;;19.50;99.90;;;;;;5019722;28;20058;-84
2022/09/08 04:20:41;;;;;;;26.52;18.98;;;19.50;99.90;;;;;;5019151;28;20057;-80
2022/09/08 04:23:09;;;;;;;32.53;19.23;;;19.60;99.90;;;;;;5028723;28;20053;-81
2022/09/08 04:25:37;;;;;;;24.15;16.05;;;19.30;99.90;;;;;;5028167;28;20100;-83
2022/09/08 04:28:03;;;;;;;21.50;13.48;;;19.30;99.90;;;;;;5031550;28;20058;-84
2022/09/08 04:30:29;;;;;;;21.00;12.00;;;19.20;99.90;;;;;;5033088;28;20037;-77
2022/09/08 04:32:56;;;;;;;20.52;8.95;;;19.20;99.90;;;;;;5033343;28;20121;-77
2022/09/08 04:35:24;;;;;;;15.98;8.35;;;19.20;99.90;;;;;;5033743;28;20018;-82
2022/09/08 04:37:49;;;;;;;13.18;7.18;;;19.20;99.90;;;;;;5028998;28;20017;-81
2022/09/08 04:40:15;;;;;;;14.07;7.50;;;19.10;99.90;;;;;;5027173;28;20052;-83
2022/09/08 04:42:43;;;;;;;14.98;7.10;;;19.10;99.90;;;;;;5029795;28;20025;-82
2022/09/08 04:45:09;;;;;;;14.27;7.00;;;19.00;99.90;;;;;;5024208;28;20511;-84
2022/09/08 04:47:34;;;;;;;12.63;6.13;;;19.00;99.90;;;;;;5029724;28;20030;-84
2022/09/08 04:50:02;;;;;;;9.68;6.07;;;19.00;99.90;;;;;;5020305;28;20025;-83
2022/09/08 04:52:28;;;;;;;12.35;5.32;;;18.90;99.90;;;;;;5027183;28;20036;-84
2022/09/08 04:54:54;;;;;;;12.88;5.85;;;18.80;99.90;;;;;;5022696;28;20033;-80
2022/09/08 04:57:20;;;;;;;10.35;5.53;;;18.60;99.90;;;;;;5030279;28;20045;-83
2022/09/08 04:59:45;;;;;;;13.30;5.60;;;18.50;99.90;;;;;;5027743;28;20463;-82
2022/09/08 05:02:13;;;;;;;10.52;5.60;;;18.40;99.90;;;;;;5021940;28;20068;-84
2022/09/08 05:04:39;;;;;;;10.95;6.55;;;18.40;99.90;;;;;;5022129;28;20128;-78
2022/09/08 05:07:04;;;;;;;11.68;6.75;;;18.40;99.90;;;;;;5018643;28;20118;-80
2022/09/08 05:09:39;;;;;;;12.88;6.95;;;18.40;99.90;;;;;;5020208;28;20537;-78
2022/09/08 05:12:05;;;;;;;12.95;7.38;;;18.40;99.90;;;;;;5016502;28;20046;-81
2022/09/08 05:14:30;;;;;;;14.85;7.13;;;18.30;99.90;;;;;;5017561;28;20029;-79
2022/09/08 05:16:57;;;;;;;16.73;7.82;;;18.30;99.90;;;;;;5019336;28;20030;-77
2022/09/08 05:19:22;;;;;;;15.35;7.30;;;18.20;99.90;;;;;;5017401;28;20014;-81
2022/09/08 05:21:48;;;;;;;14.75;7.32;;;18.20;99.90;;;;;;5018848;28;20033;-79
2022/09/08 05:24:14;;;;;;;11.77;6.47;;;18.10;99.90;;;;;;5017872;28;20030;-81
2022/09/08 05:26:39;;;;;;;14.18;7.10;;;18.00;99.90;;;;;;5025098;28;20061;-78
2022/09/08 05:29:05;;;;;;;12.23;6.40;;;17.90;99.90;;;;;;5017603;28;20067;-79
2022/09/08 05:31:31;;;;;;;15.00;6.53;;;17.90;99.90;;;;;;5035044;28;20037;-79
2022/09/08 05:33:58;;;;;;;11.73;6.07;;;17.90;99.90;;;;;;5020633;28;20425;-79
2022/09/08 05:36:35;;;;;;;12.45;6.30;;;17.60;99.90;;;;;;5021831;28;20026;-80
2022/09/08 05:39:05;;;;;;;8.65;5.05;;;17.40;99.90;;;;;;5024874;28;20034;-79
2022/09/08 05:41:31;;;;;;;9.45;5.13;;;17.10;99.90;;;;;;5021985;28;20348;-77
2022/09/08 05:43:59;;;;;;;12.15;5.70;;;16.90;99.90;;;;;;5021338;28;20027;-78
2022/09/08 05:46:26;;;;;;;8.75;5.75;;;16.70;99.90;;;;;;5024871;28;20092;-79
2022/09/08 05:49:01;;;;;;;10.30;5.32;;;16.60;99.90;;;;;;5024280;28;20485;-77
2022/09/08 05:51:28;;;;;;;9.25;5.78;;;16.80;99.90;;;;;;5023267;28;20044;-77
2022/09/08 05:53:58;;;;;;;12.70;5.53;;;16.90;99.90;;;;;;5028877;28;20088;-76
2022/09/08 05:56:26;;;;;;;13.75;4.93;;;16.80;99.90;;;;;;5027181;28;20021;-78
2022/09/08 05:58:53;;;;;;;11.00;4.93;;;16.70;99.90;;;;;;5026386;28;20063;-79
2022/09/08 06:01:19;;;;;;;11.10;4.93;;;16.60;99.90;;;;;;5022711;28;20049;-79
2022/09/08 06:03:48;;;;;;;11.23;4.72;;;16.70;99.90;;;;;;5024266;28;20075;-79
2022/09/08 06:06:17;;;;;;;16.92;5.25;;;16.80;99.90;;;;;;5022178;28;20077;-77
2022/09/08 06:08:45;;;;;;;5.70;4.10;;;16.80;99.90;;;;;;5022337;28;20025;-75
2022/09/08 06:11:11;;;;;;;9.43;3.78;;;16.80;99.90;;;;;;5023331;28;20026;-78
2022/09/08 06:13:38;;;;;;;14.95;4.50;;;16.70;99.90;;;;;;5023809;28;20043;-78
2022/09/08 06:16:17;;;;;;;9.50;4.60;;;17.60;99.90;;;;;;5022261;28;20072;-80
2022/09/08 06:18:44;;;;;;;12.75;4.20;;;17.60;99.90;;;;;;5026586;28;20025;-75
2022/09/08 06:21:12;;;;;;;7.40;3.88;;;17.20;99.90;;;;;;5026602;28;20105;-77
2022/09/08 06:23:40;;;;;;;8.27;3.95;;;17.00;99.90;;;;;;5023503;28;20104;-77
2022/09/08 06:26:15;;;;;;;9.73;3.90;;;16.80;99.90;;;;;;5023803;28;20040;-79
2022/09/08 06:28:53;;;;;;;8.80;4.18;;;17.00;99.90;;;;;;5027656;28;20029;-76
2022/09/08 06:31:28;;;;;;;10.65;4.63;;;16.90;99.90;;;;;;5021880;28;20025;-79
2022/09/08 06:34:00;;;;;;;10.73;4.00;;;17.20;99.90;;;;;;5022535;28;20033;-77
2022/09/08 06:36:44;;;;;;;7.35;3.67;;;16.90;99.90;;;;;;5023444;28;20018;-75
2022/09/08 06:39:20;;;;;;;8.20;3.50;;;17.00;99.90;;;;;;5026438;28;20022;-77
2022/09/08 06:42:04;;;;;;;7.95;3.60;;;16.80;99.90;;;;;;5021534;28;20040;-76
2022/09/08 06:44:38;;;;;;;9.57;3.42;;;16.90;99.90;;;;;;5021353;28;20060;-76
2022/09/08 06:47:11;;;;;;;9.48;3.30;;;17.10;99.90;;;;;;5027725;28;20036;-77
2022/09/08 06:49:37;;;;;;;8.27;3.80;;;17.20;99.90;;;;;;5020653;28;20021;-77
2022/09/08 06:52:37;;;;;;;7.45;3.35;;;17.30;99.90;;;;;;5021492;28;20518;-77
2022/09/08 06:55:18;;;;;;;16.48;8.07;;;16.90;99.90;;;;;;5020174;28;20053;-79
2022/09/08 06:58:01;;;;;;;13.68;3.45;;;16.80;99.90;;;;;;5006129;28;20034;-75
2022/09/08 07:00:33;;;;;;;6.45;3.20;;;16.90;99.90;;;;;;5018955;28;20025;-79
2022/09/08 07:03:10;;;;;;;10.70;3.22;;;16.80;99.90;;;;;;5022316;28;20029;-77
2022/09/08 07:06:02;;;;;;;7.13;3.33;;;16.70;99.90;;;;;;5026692;28;20036;-77
2022/09/08 07:08:30;;;;;;;5.20;2.90;;;16.80;99.90;;;;;;5027783;28;20466;-77
2022/09/08 07:11:12;;;;;;;6.20;2.90;;;16.70;99.90;;;;;;5020662;28;20362;-77
2022/09/08 07:14:00;;;;;;;7.65;3.47;;;16.60;99.90;;;;;;5023683;28;20026;-79
2022/09/08 07:16:33;;;;;;;11.05;3.33;;;16.40;99.90;;;;;;5021965;28;20026;-77
2022/09/08 07:19:06;;;;;;;4.95;2.90;;;16.50;99.90;;;;;;5020767;28;20018;-76
2022/09/08 07:21:46;;;;;;;11.40;4.15;;;16.60;99.90;;;;;;5026172;28;20025;-76
2022/09/08 07:24:16;;;;;;;4.43;3.05;;;16.50;99.90;;;;;;5021343;28;20056;-77
2022/09/08 07:26:50;;;;;;;8.27;3.92;;;16.50;99.90;;;;;;5020964;28;20212;-78
2022/09/08 07:29:47;;;;;;;5.57;3.42;;;16.30;99.90;;;;;;5022433;28;20038;-76
2022/09/08 07:32:23;;;;;;;7.65;3.53;;;16.50;99.90;;;;;;5022095;28;20083;-78
2022/09/08 07:35:02;;;;;;;8.13;3.92;;;16.60;99.90;;;;;;5021851;28;20054;-78
2022/09/08 07:37:45;;;;;;;7.22;4.00;;;16.60;99.90;;;;;;5021499;28;20102;-78
2022/09/08 07:40:39;;;;;;;9.75;4.28;;;16.80;99.90;;;;;;5027407;28;20096;-80
2022/09/08 07:43:10;;;;;;;4.40;3.75;;;16.70;99.90;;;;;;5024083;28;20045;-79
2022/09/08 07:45:53;;;;;;;7.13;4.35;;;16.80;99.90;;;;;;5024806;28;20025;-80
2022/09/08 07:48:45;;;;;;;;;;;16.90;99.90;;;;;;5022846;28;20052;-76
2022/09/08 07:51:16;;;;;;;8.02;3.92;;;16.80;99.90;;;;;;5022339;28;19948;-79
2022/09/08 07:53:51;;;;;;;9.35;4.10;;;16.70;99.90;;;;;;5037147;28;20053;-80
2022/09/08 07:56:23;;;;;;;7.97;4.20;;;16.70;99.90;;;;;;5022741;28;21047;-83
2022/09/08 07:59:10;;;;;;;6.30;4.38;;;16.70;99.90;;;;;;5023931;28;20060;-80
2022/09/08 08:01:48;;;;;;;9.05;3.90;;;16.60;99.90;;;;;;5019043;28;20030;-82
2022/09/08 08:04:39;;;;;;;8.35;4.00;;;16.80;99.90;;;;;;5020577;28;20033;-76
2022/09/08 08:07:12;;;;;;;4.43;3.33;;;16.30;99.90;;;;;;5021790;28;20686;-79
2022/09/08 08:09:40;;;;;;;8.75;3.75;;;16.40;99.90;;;;;;5036692;28;20366;-80
2022/09/08 08:12:22;;;;;;;9.93;3.47;;;16.60;99.90;;;;;;5015739;28;20021;-80
2022/09/08 08:15:13;;;;;;;14.15;6.32;;;16.60;99.90;;;;;;5027382;28;20040;-81
2022/09/08 08:17:42;;;;;;;10.00;6.80;;;16.50;99.90;;;;;;5020331;28;20353;-78
2022/09/08 08:20:18;;;;;;;8.75;4.25;;;16.60;99.90;;;;;;5027375;28;20088;-77
2022/09/08 08:23:05;;;;;;;6.30;3.90;;;16.80;99.90;;;;;;5026120;28;20075;-79
2022/09/08 08:25:42;;;;;;;8.00;3.95;;;16.90;99.90;;;;;;5021234;28;20037;-75
2022/09/08 08:28:16;;;;;;;6.05;4.43;;;16.90;99.90;;;;;;5023412;28;20049;-78
2022/09/08 08:31:24;;;;;;;9.45;4.60;;;17.00;99.90;;;;;;5021428;28;20029;-77
2022/09/08 08:33:58;;;;;;;5.18;4.03;;;17.00;99.90;;;;;;4981407;28;20469;-77
2022/09/08 08:36:31;;;;;;;4.97;3.88;;;17.10;99.90;;;;;;4998114;28;20073;-78
2022/09/08 08:39:21;;;;;;;6.13;4.15;;;17.10;99.90;;;;;;4999276;28;20095;-74
2022/09/08 08:41:58;;;;;;;5.95;4.55;;;17.20;99.90;;;;;;4982417;28;20415;-79
2022/09/08 08:44:46;;;;;;;5.80;3.35;;;17.30;99.90;;;;;;4999866;28;20030;-77
2022/09/08 08:47:43;;;;;;;4.38;3.40;;;17.40;99.90;;;;;;5001571;28;20340;-70
2022/09/08 08:50:46;;;;;;;5.28;4.43;;;17.40;99.90;;;;;;4994912;28;20432;-77
2022/09/08 08:53:49;;;;;;;7.35;4.38;;;17.40;99.90;;;;;;5001335;28;20061;-77
2022/09/08 08:56:39;;;;;;;12.85;6.80;;;17.60;99.90;;;;;;4944866;28;20031;-76
2022/09/08 08:59:22;;;;;;;4.32;3.22;;;17.70;99.90;;;;;;4951621;28;20043;-76
2022/09/08 09:01:55;;;;;;;;;;;17.60;99.90;;;;;;4948629;28;20568;-76
2022/09/08 09:05:02;;;;;;;8.32;6.80;;;17.70;99.90;;;;;;4959115;28;20024;-76
2022/09/08 09:07:57;;;;;;;7.22;5.35;;;17.60;99.90;;;;;;4949967;28;20130;-76
2022/09/08 09:10:34;;;;;;;5.60;4.30;;;17.70;99.90;;;;;;4967235;28;20049;-77
2022/09/08 09:13:09;;;;;;;6.80;5.82;;;17.90;99.90;;;;;;4947527;28;20098;-78
2022/09/08 09:15:45;;;;;;;10.38;6.78;;;17.90;99.90;;;;;;4968058;28;20520;-75
2022/09/08 09:18:30;;;;;;;6.60;5.93;;;18.00;99.90;;;;;;4967946;28;20038;-78
2022/09/08 09:21:01;;;;;;;8.38;5.55;;;18.00;99.90;;;;;;4968522;28;20567;-78
2022/09/08 09:23:54;;;;;;;9.25;4.88;;;17.80;99.90;;;;;;4968133;28;20041;-78
2022/09/08 09:26:44;;;;;;;10.52;3.60;;;18.00;99.90;;;;;;4976364;28;20033;-75
2022/09/08 09:29:10;;;;;;;7.40;5.63;;;18.10;99.90;;;;;;5031152;28;20731;-72
2022/09/08 09:31:48;;;;;;;5.57;4.13;;;18.20;99.90;;;;;;5022748;28;20037;-76
2022/09/08 09:34:32;;;;;;;8.90;6.15;;;18.20;99.90;;;;;;5019843;28;20088;-76
2022/09/08 09:37:35;;;;;;;7.22;6.45;;;18.30;99.90;;;;;;5020179;28;20206;-78
2022/09/08 09:40:18;;;;;;;7.70;7.00;;;18.30;99.90;;;;;;5019955;28;20433;-76
2022/09/08 09:42:56;;;;;;;10.35;5.90;;;18.40;99.90;;;;;;5015399;28;20033;-77
2022/09/08 09:45:40;;;;;;;9.38;5.88;;;18.80;99.90;;;;;;5020562;28;20029;-79
2022/09/08 09:48:20;;;;;;;9.65;5.90;;;19.10;99.90;;;;;;5016653;28;20029;-78
2022/09/08 09:51:08;;;;;;;10.45;7.45;;;19.10;99.90;;;;;;5020578;28;20040;-79
2022/09/08 09:53:37;;;;;;;9.98;8.15;;;19.20;99.90;;;;;;5017520;28;20057;-83
2022/09/08 09:56:07;;;;;;;11.82;9.70;;;18.90;99.90;;;;;;5016762;28;20440;-79
2022/09/08 09:58:57;;;;;;;14.32;6.82;;;18.50;99.90;;;;;;5020304;28;20070;-82
2022/09/08 10:01:41;;;;;;;18.25;6.75;;;18.80;99.90;;;;;;5020145;28;20140;-80
2022/09/08 10:04:07;;;;;;;20.35;8.15;;;18.80;99.90;;;;;;5023545;28;20021;-82
2022/09/08 10:06:44;;;;;;;11.98;6.55;;;18.90;99.90;;;;;;5020985;28;20025;-79
2022/09/08 10:09:51;;;;;;;9.73;6.75;;;18.90;99.90;;;;;;5022935;28;20021;-82
2022/09/08 10:12:41;;;;;;;17.58;11.00;;;19.20;99.90;;;;;;5021992;28;20474;-82
2022/09/08 10:15:43;;;;;;;13.85;7.95;;;19.40;99.90;;;;;;5018377;28;20033;-74
2022/09/08 10:18:43;;;;;;;11.13;6.30;;;20.30;99.90;;;;;;5021044;28;20038;-84
2022/09/08 10:21:42;;;;;;;8.18;6.55;;;20.60;99.90;;;;;;5020395;28;20025;-78
2022/09/08 10:24:30;;;;;;;8.57;7.18;;;20.40;99.90;;;;;;5017367;28;20037;-78
2022/09/08 10:26:56;;;;;;;7.72;6.03;;;19.90;99.90;;;;;;5019101;28;20121;-85
2022/09/08 10:29:22;;;;;;;7.70;5.85;;;19.90;99.90;;;;;;5020311;28;20112;-85
2022/09/08 10:32:24;;;;;;;11.23;7.72;;;20.10;99.90;;;;;;5027235;28;20091;-83
2022/09/08 10:35:19;;;;;;;8.07;4.95;;;20.30;99.90;;;;;;5021214;28;20033;-84
2022/09/08 10:38:08;;;;;;;8.77;4.97;;;20.50;99.90;;;;;;5009641;28;20033;-82
2022/09/08 10:40:37;;;;;;;8.10;5.65;;;20.30;99.90;;;;;;5033823;28;20130;-80
2022/09/08 10:43:36;;;;;;;7.13;5.20;;;20.70;99.90;;;;;;5033201;28;20018;-83
2022/09/08 10:46:21;;;;;;;8.07;3.78;;;21.20;99.90;;;;;;5031513;28;20025;-80
2022/09/08 10:49:07;;;;;;;4.25;2.42;;;22.10;99.90;;;;;;5030318;28;20021;-80
2022/09/08 10:51:39;;;;;;;3.88;2.13;;;22.40;99.90;;;;;;5036221;28;20083;-81
2022/09/08 10:54:42;;;;;;;4.65;1.80;;;22.30;99.90;;;;;;5037820;28;20044;-75
2022/09/08 10:57:52;;;;;;;3.22;2.15;;;23.00;99.90;;;;;;5038054;28;20428;-81
2022/09/08 11:00:20;;;;;;;2.20;1.95;;;23.20;99.90;;;;;;5036855;28;20038;-84
2022/09/08 11:03:17;;;;;;;4.47;2.13;;;23.20;99.90;;;;;;5037455;28;20033;-82
2022/09/08 11:05:49;;;;;;;5.38;2.33;;;23.40;99.90;;;;;;5036724;28;20035;-80
2022/09/08 11:08:24;;;;;;;3.85;1.83;;;22.90;99.90;;;;;;5037035;28;20102;-82
2022/09/08 11:11:23;;;;;;;1.30;1.20;;;22.20;99.90;;;;;;5034698;28;20026;-79
2022/09/08 11:14:15;;;;;;;5.00;1.45;;;21.40;99.90;;;;;;5037949;28;20037;-82
2022/09/08 11:16:53;;;;;;;5.60;1.67;;;21.10;99.90;;;;;;5034881;28;20092;-78
2022/09/08 11:19:37;;;;;;;5.55;1.45;;;21.50;99.90;;;;;;5056913;28;20060;-86
2022/09/08 11:22:08;;;;;;;3.60;1.30;;;22.30;99.90;;;;;;5038021;28;20027;-81
2022/09/08 11:24:37;;;;;;;2.60;1.30;;;22.80;99.90;;;;;;5042129;28;20049;-81
2022/09/08 11:27:02;;;;;;;5.93;1.70;;;23.00;99.90;;;;;;5028008;28;20100;-77
2022/09/08 11:30:12;;;;;;;1.95;1.48;;;22.50;99.90;;;;;;5022794;28;20175;-76
2022/09/08 11:32:50;;;;;;;10.40;2.13;;;22.70;99.90;;;;;;5016078;28;20415;-76
2022/09/08 11:35:41;;;;;;;3.05;1.85;;;22.90;99.90;;;;;;5020711;28;20395;-74
2022/09/08 11:38:24;;;;;;;3.35;1.70;;;22.70;99.90;;;;;;5025821;28;20017;-73
2022/09/08 11:41:06;;;;;;;2.78;1.95;;;22.30;99.90;;;;;;5025843;28;20022;-73
2022/09/08 11:43:50;;;;;;;2.80;1.77;;;22.70;99.90;;;;;;5023399;28;20022;-72
2022/09/08 11:46:54;;;;;;;4.22;1.60;;;23.20;99.90;;;;;;5028085;28;20025;-74
2022/09/08 11:49:52;;;;;;;4.28;1.95;;;23.70;99.90;;;;;;5017905;28;20087;-74
2022/09/08 11:52:38;;;;;;;6.15;2.13;;;24.00;99.90;;;;;;5028204;28;20028;-74
2022/09/08 11:55:06;;;;;;;5.22;2.42;;;23.60;99.90;;;;;;5019555;28;20096;-74
2022/09/08 11:57:39;;;;;;;6.78;2.15;;;23.50;99.90;;;;;;5023350;28;20045;-71
2022/09/08 12:00:11;;;;;;;3.17;1.95;;;23.10;99.90;;;;;;5019742;28;20430;-72
2022/09/08 12:02:49;;;;;;;4.70;1.95;;;22.60;99.90;;;;;;5027807;28;20040;-75
2022/09/08 12:05:35;;;;;;;7.22;2.10;;;22.50;99.90;;;;;;5019651;28;20171;-74
2022/09/08 12:08:12;;;;;;;3.45;1.50;;;22.30;99.90;;;;;;5020781;28;20029;-73
2022/09/08 12:11:00;;;;;;;2.70;1.73;;;22.30;99.90;;;;;;5020360;28;20041;-74
2022/09/08 12:13:55;;;;;;;4.70;2.17;;;22.20;99.90;;;;;;5022227;28;20038;-72
2022/09/08 12:16:46;;;;;;;3.00;1.90;;;22.20;99.90;;;;;;5021881;28;20065;-73
2022/09/08 12:19:35;;;;;;;2.40;1.80;;;22.50;99.90;;;;;;5020050;28;20025;-74
2022/09/08 12:22:19;;;;;;;3.88;2.20;;;22.60;99.90;;;;;;5023506;28;20049;-75
2022/09/08 12:25:24;;;;;;;5.68;2.05;;;22.90;99.90;;;;;;5022026;28;20346;-74
2022/09/08 12:28:01;;;;;;;3.47;1.95;;;22.70;99.90;;;;;;4987282;28;20041;-75
2022/09/08 12:30:50;;;;;;;6.93;2.20;;;22.80;99.90;;;;;;5001209;28;20034;-75
2022/09/08 12:33:46;;;;;;;3.78;2.17;;;23.10;99.90;;;;;;5017834;28;20810;-74
2022/09/08 12:36:17;;;;;;;3.15;1.83;;;23.60;99.90;;;;;;5024519;28;20045;-75
2022/09/08 12:39:05;;;;;;;3.83;1.83;;;23.90;99.90;;;;;;5022884;28;20382;-74
2022/09/08 12:41:55;;;;;;;3.28;1.83;;;24.00;99.90;;;;;;5019946;28;20033;-70
2022/09/08 12:44:42;;;;;;;5.22;1.85;;;23.90;99.90;;;;;;5023501;28;20457;-74
2022/09/08 12:47:43;;;;;;;1.95;1.70;;;24.00;99.90;;;;;;5020554;28;20022;-75
2022/09/08 12:50:20;;;;;;;3.53;1.55;;;24.80;99.80;;;;;;5022850;28;20600;-76
2022/09/08 12:53:00;;;;;;;4.30;1.80;;;25.20;98.20;;;;;;5019651;28;20030;-74
2022/09/08 12:55:55;;;;;;;4.00;1.73;;;25.30;96.70;;;;;;5027076;28;20026;-77
2022/09/08 12:58:38;;;;;;;5.20;1.70;;;25.50;95.10;;;;;;5004702;28;20030;-74
2022/09/08 13:01:32;;;;;;;6.45;1.70;;;25.50;95.20;;;;;;5023049;28;20018;-75
2022/09/08 13:03:59;;;;;;;;;;;24.90;94.40;;;;;;5018908;28;20033;-77
2022/09/08 13:06:40;;;;;;;2.67;1.45;;;24.70;95.40;;;;;;5026624;28;19908;-75
2022/09/08 13:09:32;;;;;;;4.20;1.98;;;24.20;95.90;;;;;;5022636;28;20064;-75
2022/09/08 13:12:30;;;;;;;4.90;1.90;;;24.90;95.70;;;;;;5024806;28;20029;-75
2022/09/08 13:15:01;;;;;;;5.20;1.50;;;25.60;94.30;;;;;;5019483;28;20116;-77
2022/09/08 13:18:19;;;;;;;2.65;1.40;;;26.10;93.00;;;;;;5020528;28;20054;-75
2022/09/08 13:20:59;;;;;;;3.80;1.38;;;26.20;93.20;;;;;;5023268;28;20062;-77
2022/09/08 13:23:48;;;;;;;3.13;2.15;;;26.40;92.30;;;;;;5024848;28;20056;-73
2022/09/08 13:26:51;;;;;;;3.65;2.05;;;26.80;90.20;;;;;;4998486;28;20151;-76
2022/09/08 13:29:36;;;;;;;;;;;27.10;86.30;;;;;;5023059;28;20059;-73
2022/09/08 13:32:23;;;;;;;4.45;1.60;;;26.70;87.90;;;;;;5023757;28;19933;-75
2022/09/08 13:35:06;;;;;;;1.63;1.52;;;26.70;87.80;;;;;;5023246;28;20108;-77